sensor_id;sensor_type;location;lat;lon;timestamp;pressure;altitude;pressure_sealevel;temperature;humidity
46886;BME280;32622;48.202;11.326;2022-09-09T00:01:36;1015.09;;;18.04;26.84
46886;BME280;32622;48.202;11.326;2022-09-09T00:03:47;1015.22;;;17.26;26.99
46886;BME280;32622;48.202;11.326;2022-09-09T00:06:02;1015.25;;;17.15;27.37
46886;BME280;32622;48.202;11.326;2022-09-09T00:08:14;1015.25;;;17.38;27.52
46886;BME280;32622;48.202;11.326;2022-09-09T00:10:26;1015.30;;;17.01;27.44
46886;BME280;32622;48.202;11.326;2022-09-09T00:12:36;1015.14;;;17.62;27.30
46886;BME280;32622;48.202;11.326;2022-09-09T00:14:50;1015.18;;;17.43;27.48
46886;BME280;32622;48.202;11.326;2022-09-09T00:17:00;1015.23;;;17.34;27.49
46886;BME280;32622;48.202;11.326;2022-09-09T00:19:11;1015.15;;;17.67;27.62
46886;BME280;32622;48.202;11.326;2022-09-09T00:21:30;1015.30;;;17.04;27.76
46886;BME280;32622;48.202;11.326;2022-09-09T00:23:40;1015.22;;;17.36;27.51
46886;BME280;32622;48.202;11.326;2022-09-09T00:25:57;1015.10;;;17.74;27.51
46886;BME280;32622;48.202;11.326;2022-09-09T00:28:04;1015.14;;;17.45;27.41
46886;BME280;32622;48.202;11.326;2022-09-09T00:30:16;1015.23;;;16.96;27.87
46886;BME280;32622;48.202;11.326;2022-09-09T00:32:24;1015.28;;;16.66;27.95
46886;BME280;32622;48.202;11.326;2022-09-09T00:34:32;1015.11;;;17.35;27.49
46886;BME280;32622;48.202;11.326;2022-09-09T00:36:37;1015.19;;;17.05;28.01
46886;BME280;32622;48.202;11.326;2022-09-09T00:38:47;1015.14;;;17.13;27.64
46886;BME280;32622;48.202;11.326;2022-09-09T00:40:56;1015.16;;;17.19;27.22
46886;BME280;32622;48.202;11.326;2022-09-09T00:43:17;1015.14;;;17.48;27.36
46886;BME280;32622;48.202;11.326;2022-09-09T00:45:42;1015.15;;;17.46;27.45
46886;BME280;32622;48.202;11.326;2022-09-09T00:47:51;1015.16;;;17.28;27.61
46886;BME280;32622;48.202;11.326;2022-09-09T00:50:01;1015.04;;;17.75;27.12
46886;BME280;32622;48.202;11.326;2022-09-09T00:52:15;1014.98;;;17.93;26.88
46886;BME280;32622;48.202;11.326;2022-09-09T00:54:32;1014.99;;;17.86;26.94
46886;BME280;32622;48.202;11.326;2022-09-09T00:56:43;1015.09;;;17.34;27.09
46886;BME280;32622;48.202;11.326;2022-09-09T00:58:59;1014.93;;;18.08;26.71
46886;BME280;32622;48.202;11.326;2022-09-09T01:01:10;1015.05;;;17.39;26.76
46886;BME280;32622;48.202;11.326;2022-09-09T01:03:21;1014.87;;;18.04;26.59
46886;BME280;32622;48.202;11.326;2022-09-09T01:05:33;1014.87;;;18.14;26.58
46886;BME280;32622;48.202;11.326;2022-09-09T01:07:40;1015.10;;;17.47;27.11
46886;BME280;32622;48.202;11.326;2022-09-09T01:09:55;1015.25;;;16.96;27.45
46886;BME280;32622;48.202;11.326;2022-09-09T01:12:14;1015.31;;;16.68;28.08
46886;BME280;32622;48.202;11.326;2022-09-09T01:14:30;1015.46;;;15.86;28.50
46886;BME280;32622;48.202;11.326;2022-09-09T01:16:35;1015.47;;;15.74;29.00
46886;BME280;32622;48.202;11.326;2022-09-09T01:18:46;1015.34;;;16.35;28.19
46886;BME280;32622;48.202;11.326;2022-09-09T01:21:06;1015.34;;;16.27;28.46
46886;BME280;32622;48.202;11.326;2022-09-09T01:23:34;1015.25;;;16.69;28.51
46886;BME280;32622;48.202;11.326;2022-09-09T01:28:16;1015.25;;;16.84;28.37
46886;BME280;32622;48.202;11.326;2022-09-09T01:30:21;1015.37;;;16.23;28.47
46886;BME280;32622;48.202;11.326;2022-09-09T01:32:44;1015.32;;;16.32;28.30
46886;BME280;32622;48.202;11.326;2022-09-09T01:34:48;1015.29;;;16.41;28.28
46886;BME280;32622;48.202;11.326;2022-09-09T01:36:59;1015.25;;;16.59;28.59
46886;BME280;32622;48.202;11.326;2022-09-09T01:39:06;1015.24;;;16.66;28.12
46886;BME280;32622;48.202;11.326;2022-09-09T01:41:09;1015.13;;;17.14;27.69
46886;BME280;32622;48.202;11.326;2022-09-09T01:43:20;1015.05;;;17.42;27.44
46886;BME280;32622;48.202;11.326;2022-09-09T01:45:25;1015.09;;;17.29;27.28
46886;BME280;32622;48.202;11.326;2022-09-09T01:47:30;1015.09;;;17.15;27.18
46886;BME280;32622;48.202;11.326;2022-09-09T01:49:34;1014.99;;;17.49;27.33
46886;BME280;32622;48.202;11.326;2022-09-09T01:51:41;1015.06;;;17.12;27.36
46886;BME280;32622;48.202;11.326;2022-09-09T01:53:47;1015.07;;;17.26;27.23
46886;BME280;32622;48.202;11.326;2022-09-09T01:56:04;1015.08;;;17.27;27.21
46886;BME280;32622;48.202;11.326;2022-09-09T01:58:22;1015.07;;;17.32;27.46
46886;BME280;32622;48.202;11.326;2022-09-09T02:00:32;1015.22;;;16.47;27.80
46886;BME280;32622;48.202;11.326;2022-09-09T02:02:46;1015.14;;;16.84;27.58
46886;BME280;32622;48.202;11.326;2022-09-09T02:04:56;1015.21;;;16.18;28.54
46886;BME280;32622;48.202;11.326;2022-09-09T02:07:15;1015.24;;;15.97;28.58
46886;BME280;32622;48.202;11.326;2022-09-09T02:09:24;1015.03;;;16.69;28.36
46886;BME280;32622;48.202;11.326;2022-09-09T02:11:29;1014.98;;;16.76;28.36
46886;BME280;32622;48.202;11.326;2022-09-09T02:13:37;1015.10;;;16.22;28.15
46886;BME280;32622;48.202;11.326;2022-09-09T02:15:45;1015.09;;;16.32;28.82
46886;BME280;32622;48.202;11.326;2022-09-09T02:17:52;1015.31;;;15.62;29.00
46886;BME280;32622;48.202;11.326;2022-09-09T02:20:06;1015.21;;;16.02;28.45
46886;BME280;32622;48.202;11.326;2022-09-09T02:22:12;1015.11;;;16.36;28.42
46886;BME280;32622;48.202;11.326;2022-09-09T02:24:16;1015.08;;;16.43;28.33
46886;BME280;32622;48.202;11.326;2022-09-09T02:26:21;1014.95;;;16.92;27.83
46886;BME280;32622;48.202;11.326;2022-09-09T02:28:27;1015.00;;;16.62;27.70
46886;BME280;32622;48.202;11.326;2022-09-09T02:30:34;1015.02;;;16.57;27.91
46886;BME280;32622;48.202;11.326;2022-09-09T02:32:40;1015.04;;;16.74;27.51
46886;BME280;32622;48.202;11.326;2022-09-09T02:34:49;1014.92;;;17.06;27.18
46886;BME280;32622;48.202;11.326;2022-09-09T02:36:54;1015.08;;;16.42;27.57
46886;BME280;32622;48.202;11.326;2022-09-09T02:39:02;1015.14;;;16.21;27.83
46886;BME280;32622;48.202;11.326;2022-09-09T02:41:08;1015.01;;;16.85;27.28
46886;BME280;32622;48.202;11.326;2022-09-09T02:43:13;1015.12;;;16.19;27.69
46886;BME280;32622;48.202;11.326;2022-09-09T02:45:19;1015.05;;;16.24;27.77
46886;BME280;32622;48.202;11.326;2022-09-09T02:47:31;1014.99;;;16.55;27.71
46886;BME280;32622;48.202;11.326;2022-09-09T02:49:43;1014.99;;;16.51;27.47
46886;BME280;32622;48.202;11.326;2022-09-09T02:51:57;1014.91;;;16.92;27.25
46886;BME280;32622;48.202;11.326;2022-09-09T02:54:13;1014.94;;;16.77;27.21
46886;BME280;32622;48.202;11.326;2022-09-09T02:56:23;1015.11;;;16.00;27.78
46886;BME280;32622;48.202;11.326;2022-09-09T02:58:32;1014.97;;;16.66;27.72
46886;BME280;32622;48.202;11.326;2022-09-09T03:00:37;1014.98;;;16.57;27.72
46886;BME280;32622;48.202;11.326;2022-09-09T03:02:44;1014.95;;;16.58;27.83
46886;BME280;32622;48.202;11.326;2022-09-09T03:04:48;1015.01;;;16.04;27.99
46886;BME280;32622;48.202;11.326;2022-09-09T03:06:58;1014.92;;;16.39;28.09
46886;BME280;32622;48.202;11.326;2022-09-09T03:09:03;1014.98;;;16.22;28.24
46886;BME280;32622;48.202;11.326;2022-09-09T03:11:09;1014.88;;;16.68;27.75
46886;BME280;32622;48.202;11.326;2022-09-09T03:13:14;1014.79;;;16.95;27.46
46886;BME280;32622;48.202;11.326;2022-09-09T03:15:23;1014.89;;;16.57;27.54
46886;BME280;32622;48.202;11.326;2022-09-09T03:17:27;1014.89;;;16.63;27.41
46886;BME280;32622;48.202;11.326;2022-09-09T03:19:32;1014.82;;;16.96;27.30
46886;BME280;32622;48.202;11.326;2022-09-09T03:21:36;1014.81;;;16.78;27.19
46886;BME280;32622;48.202;11.326;2022-09-09T03:23:41;1014.85;;;16.70;27.32
46886;BME280;32622;48.202;11.326;2022-09-09T03:25:50;1014.85;;;16.67;27.39
46886;BME280;32622;48.202;11.326;2022-09-09T03:27:55;1014.77;;;17.03;27.45
46886;BME280;32622;48.202;11.326;2022-09-09T03:29:59;1014.76;;;17.08;27.33
46886;BME280;32622;48.202;11.326;2022-09-09T03:32:03;1014.81;;;16.90;27.39
46886;BME280;32622;48.202;11.326;2022-09-09T03:34:07;1014.77;;;16.93;27.40
46886;BME280;32622;48.202;11.326;2022-09-09T03:36:12;1014.78;;;16.99;27.63
46886;BME280;32622;48.202;11.326;2022-09-09T03:38:15;1014.85;;;16.69;27.67
46886;BME280;32622;48.202;11.326;2022-09-09T03:40:19;1014.75;;;17.15;27.55
46886;BME280;32622;48.202;11.326;2022-09-09T03:42:24;1014.80;;;16.92;27.50
46886;BME280;32622;48.202;11.326;2022-09-09T03:44:36;1014.75;;;17.05;27.27
46886;BME280;32622;48.202;11.326;2022-09-09T03:46:41;1014.64;;;17.50;27.22
46886;BME280;32622;48.202;11.326;2022-09-09T03:48:45;1014.75;;;17.15;27.28
46886;BME280;32622;48.202;11.326;2022-09-09T03:50:51;1014.85;;;16.76;27.61
46886;BME280;32622;48.202;11.326;2022-09-09T03:52:57;1014.66;;;17.41;27.42
46886;BME280;32622;48.202;11.326;2022-09-09T03:55:07;1014.66;;;17.29;27.45
46886;BME280;32622;48.202;11.326;2022-09-09T03:57:12;1014.60;;;17.37;27.13
46886;BME280;32622;48.202;11.326;2022-09-09T03:59:19;1014.56;;;17.46;26.97
46886;BME280;32622;48.202;11.326;2022-09-09T04:01:28;1014.69;;;16.99;27.52
46886;BME280;32622;48.202;11.326;2022-09-09T04:03:32;1014.59;;;17.17;27.30
46886;BME280;32622;48.202;11.326;2022-09-09T04:05:36;1014.53;;;17.39;27.22
46886;BME280;32622;48.202;11.326;2022-09-09T04:07:40;1014.55;;;17.37;27.27
46886;BME280;32622;48.202;11.326;2022-09-09T04:09:44;1014.58;;;17.43;27.14
46886;BME280;32622;48.202;11.326;2022-09-09T04:11:48;1014.64;;;17.09;27.38
46886;BME280;32622;48.202;11.326;2022-09-09T04:13:51;1014.67;;;16.86;27.60
46886;BME280;32622;48.202;11.326;2022-09-09T04:15:59;1014.54;;;17.20;27.30
46886;BME280;32622;48.202;11.326;2022-09-09T04:18:05;1014.71;;;16.65;27.87
46886;BME280;32622;48.202;11.326;2022-09-09T04:20:11;1014.68;;;16.83;27.68
46886;BME280;32622;48.202;11.326;2022-09-09T04:22:14;1014.61;;;17.08;27.59
46886;BME280;32622;48.202;11.326;2022-09-09T04:24:18;1014.71;;;16.59;27.68
46886;BME280;32622;48.202;11.326;2022-09-09T04:26:22;1014.72;;;16.54;27.56
46886;BME280;32622;48.202;11.326;2022-09-09T04:28:27;1014.69;;;16.69;27.42
46886;BME280;32622;48.202;11.326;2022-09-09T04:30:31;1014.54;;;17.25;27.25
46886;BME280;32622;48.202;11.326;2022-09-09T04:32:34;1014.55;;;17.16;27.02
46886;BME280;32622;48.202;11.326;2022-09-09T04:34:37;1014.58;;;17.01;26.96
46886;BME280;32622;48.202;11.326;2022-09-09T04:36:43;1014.44;;;17.55;26.83
46886;BME280;32622;48.202;11.326;2022-09-09T04:38:47;1014.51;;;17.02;26.66
46886;BME280;32622;48.202;11.326;2022-09-09T04:40:51;1014.50;;;17.09;26.56
46886;BME280;32622;48.202;11.326;2022-09-09T04:42:57;1014.51;;;16.91;26.79
46886;BME280;32622;48.202;11.326;2022-09-09T04:45:01;1014.47;;;17.13;26.65
46886;BME280;32622;48.202;11.326;2022-09-09T04:47:04;1014.43;;;17.27;26.63
46886;BME280;32622;48.202;11.326;2022-09-09T04:49:09;1014.39;;;17.37;26.53
46886;BME280;32622;48.202;11.326;2022-09-09T04:51:14;1014.41;;;17.22;26.69
46886;BME280;32622;48.202;11.326;2022-09-09T04:53:17;1014.38;;;17.21;26.76
46886;BME280;32622;48.202;11.326;2022-09-09T04:55:22;1014.30;;;17.64;26.75
46886;BME280;32622;48.202;11.326;2022-09-09T04:57:26;1014.38;;;17.42;26.61
46886;BME280;32622;48.202;11.326;2022-09-09T04:59:30;1014.37;;;17.52;26.51
46886;BME280;32622;48.202;11.326;2022-09-09T05:01:34;1014.36;;;17.61;26.42
46886;BME280;32622;48.202;11.326;2022-09-09T05:03:38;1014.48;;;17.02;26.34
46886;BME280;32622;48.202;11.326;2022-09-09T05:05:41;1014.46;;;16.98;26.42
46886;BME280;32622;48.202;11.326;2022-09-09T05:07:45;1014.40;;;17.20;26.61
46886;BME280;32622;48.202;11.326;2022-09-09T05:09:48;1014.47;;;16.85;26.91
46886;BME280;32622;48.202;11.326;2022-09-09T05:11:51;1014.35;;;17.53;26.75
46886;BME280;32622;48.202;11.326;2022-09-09T05:13:54;1014.48;;;17.00;26.81
46886;BME280;32622;48.202;11.326;2022-09-09T05:15:58;1014.39;;;17.50;26.66
46886;BME280;32622;48.202;11.326;2022-09-09T05:18:02;1014.45;;;17.25;26.59
46886;BME280;32622;48.202;11.326;2022-09-09T05:20:06;1014.43;;;17.52;26.73
46886;BME280;32622;48.202;11.326;2022-09-09T05:22:08;1014.36;;;17.78;26.55
46886;BME280;32622;48.202;11.326;2022-09-09T05:24:12;1014.40;;;17.62;26.38
46886;BME280;32622;48.202;11.326;2022-09-09T05:26:16;1014.36;;;17.87;26.55
46886;BME280;32622;48.202;11.326;2022-09-09T05:28:19;1014.37;;;17.93;26.54
46886;BME280;32622;48.202;11.326;2022-09-09T05:30:25;1014.43;;;17.90;26.48
46886;BME280;32622;48.202;11.326;2022-09-09T05:32:36;1014.49;;;18.05;26.78
46886;BME280;32622;48.202;11.326;2022-09-09T05:34:43;1014.63;;;17.64;26.99
46886;BME280;32622;48.202;11.326;2022-09-09T05:36:47;1014.61;;;17.61;27.02
46886;BME280;32622;48.202;11.326;2022-09-09T05:38:52;1014.53;;;17.97;26.94
46886;BME280;32622;48.202;11.326;2022-09-09T05:51:19;1014.52;;;17.85;31.31
46886;BME280;32622;48.202;11.326;2022-09-09T05:55:42;1014.73;;;17.29;30.51
46886;BME280;32622;48.202;11.326;2022-09-09T05:57:49;1014.98;;;16.18;30.05
46886;BME280;32622;48.202;11.326;2022-09-09T05:59:54;1014.87;;;16.38;29.12
46886;BME280;32622;48.202;11.326;2022-09-09T06:01:59;1014.75;;;16.84;28.58
46886;BME280;32622;48.202;11.326;2022-09-09T06:04:02;1014.60;;;17.41;28.20
46886;BME280;32622;48.202;11.326;2022-09-09T06:06:08;1014.69;;;16.90;27.97
46886;BME280;32622;48.202;11.326;2022-09-09T06:08:15;1014.60;;;17.42;27.95
46886;BME280;32622;48.202;11.326;2022-09-09T06:10:18;1014.66;;;17.21;27.79
46886;BME280;32622;48.202;11.326;2022-09-09T06:12:21;1014.66;;;17.26;27.57
46886;BME280;32622;48.202;11.326;2022-09-09T06:14:24;1014.59;;;17.69;27.41
46886;BME280;32622;48.202;11.326;2022-09-09T06:16:28;1014.66;;;17.40;27.68
46886;BME280;32622;48.202;11.326;2022-09-09T06:18:31;1014.67;;;17.48;27.61
46886;BME280;32622;48.202;11.326;2022-09-09T06:20:35;1014.68;;;17.34;27.60
46886;BME280;32622;48.202;11.326;2022-09-09T06:22:39;1014.56;;;17.97;27.26
46886;BME280;32622;48.202;11.326;2022-09-09T06:24:43;1014.62;;;17.76;27.09
46886;BME280;32622;48.202;11.326;2022-09-09T06:26:47;1014.51;;;18.23;27.03
46886;BME280;32622;48.202;11.326;2022-09-09T06:28:51;1014.57;;;18.03;27.09
46886;BME280;32622;48.202;11.326;2022-09-09T06:30:58;1014.54;;;18.17;26.98
46886;BME280;32622;48.202;11.326;2022-09-09T06:33:05;1014.75;;;17.46;27.32
46886;BME280;32622;48.202;11.326;2022-09-09T06:35:09;1014.79;;;17.37;27.35
46886;BME280;32622;48.202;11.326;2022-09-09T06:37:12;1014.77;;;17.75;27.21
46886;BME280;32622;48.202;11.326;2022-09-09T06:39:15;1014.78;;;17.75;27.07
46886;BME280;32622;48.202;11.326;2022-09-09T06:41:19;1014.55;;;18.79;26.76
46886;BME280;32622;48.202;11.326;2022-09-09T06:43:23;1014.72;;;18.26;26.77
46886;BME280;32622;48.202;11.326;2022-09-09T06:45:26;1014.98;;;17.59;27.20
46886;BME280;32622;48.202;11.326;2022-09-09T06:47:29;1015.14;;;17.78;27.68
46886;BME280;32622;48.202;11.326;2022-09-09T06:49:32;1015.35;;;17.65;27.89
46886;BME280;32622;48.202;11.326;2022-09-09T06:51:36;1015.36;;;17.74;27.79
46886;BME280;32622;48.202;11.326;2022-09-09T06:53:41;1015.41;;;17.65;28.13
46886;BME280;32622;48.202;11.326;2022-09-09T06:55:44;1015.42;;;17.66;28.23
46886;BME280;32622;48.202;11.326;2022-09-09T06:57:47;1015.76;;;16.19;29.54
46886;BME280;32622;48.202;11.326;2022-09-09T06:59:51;1015.57;;;16.75;29.49
46886;BME280;32622;48.202;11.326;2022-09-09T07:01:54;1015.39;;;17.26;28.74
46886;BME280;32622;48.202;11.326;2022-09-09T07:03:58;1015.35;;;17.47;28.90
46886;BME280;32622;48.202;11.326;2022-09-09T07:06:01;1015.37;;;17.58;28.95
46886;BME280;32622;48.202;11.326;2022-09-09T07:08:07;1015.38;;;17.55;29.08
46886;BME280;32622;48.202;11.326;2022-09-09T07:10:10;1015.22;;;18.21;28.77
46886;BME280;32622;48.202;11.326;2022-09-09T07:12:13;1015.20;;;18.32;28.54
46886;BME280;32622;48.202;11.326;2022-09-09T07:14:16;1015.21;;;18.44;28.50
46886;BME280;32622;48.202;11.326;2022-09-09T07:16:20;1015.18;;;18.72;28.35
46886;BME280;32622;48.202;11.326;2022-09-09T07:18:23;1015.20;;;18.71;28.41
46886;BME280;32622;48.202;11.326;2022-09-09T07:20:26;1015.13;;;19.04;28.27
46886;BME280;32622;48.202;11.326;2022-09-09T07:22:29;1015.05;;;19.21;27.95
46886;BME280;32622;48.202;11.326;2022-09-09T07:24:32;1015.13;;;18.83;28.03
46886;BME280;32622;48.202;11.326;2022-09-09T07:26:36;1015.12;;;18.84;27.70
46886;BME280;32622;48.202;11.326;2022-09-09T07:28:40;1015.18;;;18.52;27.55
46886;BME280;32622;48.202;11.326;2022-09-09T07:30:43;1015.15;;;18.61;27.64
46886;BME280;32622;48.202;11.326;2022-09-09T07:32:46;1014.99;;;19.29;27.45
46886;BME280;32622;48.202;11.326;2022-09-09T07:34:49;1014.92;;;19.51;26.86
46886;BME280;32622;48.202;11.326;2022-09-09T07:36:53;1014.90;;;19.61;27.05
46886;BME280;32622;48.202;11.326;2022-09-09T07:38:59;1014.87;;;19.64;27.22
46886;BME280;32622;48.202;11.326;2022-09-09T07:41:07;1014.82;;;19.94;27.06
46886;BME280;32622;48.202;11.326;2022-09-09T07:43:11;1014.90;;;19.73;27.04
46886;BME280;32622;48.202;11.326;2022-09-09T07:45:14;1014.95;;;19.67;26.77
46886;BME280;32622;48.202;11.326;2022-09-09T07:47:21;1014.94;;;20.06;26.56
46886;BME280;32622;48.202;11.326;2022-09-09T07:49:24;1015.26;;;19.22;27.24
46886;BME280;32622;48.202;11.326;2022-09-09T07:51:29;1015.30;;;19.57;27.23
46886;BME280;32622;48.202;11.326;2022-09-09T07:53:33;1015.28;;;19.58;26.97
46886;BME280;32622;48.202;11.326;2022-09-09T07:55:36;1015.36;;;19.56;27.18
46886;BME280;32622;48.202;11.326;2022-09-09T07:57:39;1015.42;;;19.49;27.13
46886;BME280;32622;48.202;11.326;2022-09-09T07:59:42;1015.47;;;19.37;26.74
46886;BME280;32622;48.202;11.326;2022-09-09T08:01:47;1015.44;;;19.37;26.79
46886;BME280;32622;48.202;11.326;2022-09-09T08:03:55;1015.57;;;18.79;26.74
46886;BME280;32622;48.202;11.326;2022-09-09T08:06:01;1015.61;;;18.90;27.26
46886;BME280;32622;48.202;11.326;2022-09-09T08:08:04;1015.66;;;18.47;27.31
46886;BME280;32622;48.202;11.326;2022-09-09T08:10:07;1015.46;;;19.37;26.97
46886;BME280;32622;48.202;11.326;2022-09-09T08:12:10;1015.45;;;19.34;26.84
46886;BME280;32622;48.202;11.326;2022-09-09T08:14:14;1015.41;;;19.38;26.99
46886;BME280;32622;48.202;11.326;2022-09-09T08:16:18;1015.35;;;19.49;26.62
46886;BME280;32622;48.202;11.326;2022-09-09T08:18:22;1015.29;;;19.52;26.35
46886;BME280;32622;48.202;11.326;2022-09-09T08:20:25;1015.37;;;19.18;27.02
46886;BME280;32622;48.202;11.326;2022-09-09T08:22:28;1015.78;;;17.17;29.51
46886;BME280;32622;48.202;11.326;2022-09-09T08:24:31;1016.10;;;16.26;30.91
46886;BME280;32622;48.202;11.326;2022-09-09T08:26:36;1015.81;;;17.47;30.09
46886;BME280;32622;48.202;11.326;2022-09-09T08:28:39;1015.85;;;17.45;30.15
46886;BME280;32622;48.202;11.326;2022-09-09T08:30:43;1015.82;;;17.72;30.14
46886;BME280;32622;48.202;11.326;2022-09-09T08:32:46;1015.99;;;17.08;31.30
46886;BME280;32622;48.202;11.326;2022-09-09T08:34:49;1015.80;;;17.83;30.74
46886;BME280;32622;48.202;11.326;2022-09-09T08:36:52;1016.37;;;15.60;32.99
46886;BME280;32622;48.202;11.326;2022-09-09T08:38:57;1016.05;;;17.30;31.62
46886;BME280;32622;48.202;11.326;2022-09-09T08:41:19;1015.85;;;18.15;30.61
46886;BME280;32622;48.202;11.326;2022-09-09T08:43:29;1015.95;;;17.71;29.98
46886;BME280;32622;48.202;11.326;2022-09-09T08:45:37;1015.85;;;17.94;29.59
46886;BME280;32622;48.202;11.326;2022-09-09T08:48:01;1015.74;;;18.43;29.35
46886;BME280;32622;48.202;11.326;2022-09-09T08:50:17;1015.65;;;18.84;28.94
46886;BME280;32622;48.202;11.326;2022-09-09T08:52:25;1015.54;;;19.41;29.73
46886;BME280;32622;48.202;11.326;2022-09-09T08:54:33;1015.41;;;19.83;29.16
46886;BME280;32622;48.202;11.326;2022-09-09T08:56:37;1015.65;;;18.71;28.87
46886;BME280;32622;48.202;11.326;2022-09-09T08:58:46;1015.49;;;19.30;27.99
46886;BME280;32622;48.202;11.326;2022-09-09T09:01:14;1015.45;;;19.48;27.55
46886;BME280;32622;48.202;11.326;2022-09-09T09:03:25;1015.46;;;19.39;27.21
46886;BME280;32622;48.202;11.326;2022-09-09T09:05:35;1015.33;;;20.08;26.82
46886;BME280;32622;48.202;11.326;2022-09-09T09:07:48;1015.40;;;19.74;26.65
46886;BME280;32622;48.202;11.326;2022-09-09T09:10:00;1015.41;;;19.73;26.66
46886;BME280;32622;48.202;11.326;2022-09-09T09:12:15;1015.25;;;20.48;25.68
46886;BME280;32622;48.202;11.326;2022-09-09T09:14:20;1015.57;;;19.16;26.50
46886;BME280;32622;48.202;11.326;2022-09-09T09:16:29;1015.49;;;19.37;26.19
46886;BME280;32622;48.202;11.326;2022-09-09T09:18:33;1015.44;;;19.64;25.96
46886;BME280;32622;48.202;11.326;2022-09-09T09:20:42;1015.67;;;18.71;26.37
46886;BME280;32622;48.202;11.326;2022-09-09T09:22:50;1015.54;;;19.32;26.21
46886;BME280;32622;48.202;11.326;2022-09-09T09:24:55;1015.41;;;19.93;26.25
46886;BME280;32622;48.202;11.326;2022-09-09T09:27:04;1015.44;;;19.77;26.35
46886;BME280;32622;48.202;11.326;2022-09-09T09:29:14;1015.44;;;19.59;26.32
46886;BME280;32622;48.202;11.326;2022-09-09T09:31:18;1015.33;;;20.10;26.11
46886;BME280;32622;48.202;11.326;2022-09-09T09:33:25;1015.38;;;19.85;25.88
46886;BME280;32622;48.202;11.326;2022-09-09T09:35:29;1015.23;;;20.69;25.91
46886;BME280;32622;48.202;11.326;2022-09-09T09:37:34;1015.37;;;19.80;26.14
46886;BME280;32622;48.202;11.326;2022-09-09T09:39:37;1015.30;;;20.32;25.54
46886;BME280;32622;48.202;11.326;2022-09-09T09:41:42;1015.32;;;20.39;25.55
46886;BME280;32622;48.202;11.326;2022-09-09T09:43:54;1015.30;;;20.46;25.50
46886;BME280;32622;48.202;11.326;2022-09-09T09:45:57;1015.61;;;19.13;27.13
46886;BME280;32622;48.202;11.326;2022-09-09T09:48:02;1015.59;;;19.30;26.26
46886;BME280;32622;48.202;11.326;2022-09-09T09:50:17;1015.46;;;19.84;26.01
46886;BME280;32622;48.202;11.326;2022-09-09T09:52:24;1015.47;;;20.03;25.78
46886;BME280;32622;48.202;11.326;2022-09-09T09:54:29;1015.70;;;19.07;26.64
46886;BME280;32622;48.202;11.326;2022-09-09T09:56:34;1015.50;;;19.94;26.08
46886;BME280;32622;48.202;11.326;2022-09-09T09:58:49;1015.45;;;19.97;25.74
46886;BME280;32622;48.202;11.326;2022-09-09T10:00:54;1015.37;;;20.39;25.69
46886;BME280;32622;48.202;11.326;2022-09-09T10:03:00;1015.42;;;20.09;25.60
46886;BME280;32622;48.202;11.326;2022-09-09T10:05:05;1015.47;;;20.02;25.90
46886;BME280;32622;48.202;11.326;2022-09-09T10:07:11;1015.35;;;20.43;25.86
46886;BME280;32622;48.202;11.326;2022-09-09T10:09:23;1015.29;;;20.82;25.68
46886;BME280;32622;48.202;11.326;2022-09-09T10:11:38;1015.28;;;20.85;25.47
46886;BME280;32622;48.202;11.326;2022-09-09T10:13:50;1015.37;;;20.38;25.58
46886;BME280;32622;48.202;11.326;2022-09-09T10:16:08;1015.38;;;20.16;25.88
46886;BME280;32622;48.202;11.326;2022-09-09T10:18:28;1015.32;;;20.33;25.57
46886;BME280;32622;48.202;11.326;2022-09-09T10:20:39;1015.27;;;20.71;25.28
46886;BME280;32622;48.202;11.326;2022-09-09T10:22:47;1015.31;;;20.53;25.33
46886;BME280;32622;48.202;11.326;2022-09-09T10:25:03;1015.24;;;20.60;25.10
46886;BME280;32622;48.202;11.326;2022-09-09T10:27:19;1015.11;;;21.46;24.72
46886;BME280;32622;48.202;11.326;2022-09-09T10:29:35;1015.26;;;20.82;24.94
46886;BME280;32622;48.202;11.326;2022-09-09T10:31:51;1015.27;;;20.76;24.85
46886;BME280;32622;48.202;11.326;2022-09-09T10:34:02;1015.91;;;17.72;27.82
46886;BME280;32622;48.202;11.326;2022-09-09T10:36:13;1015.32;;;20.24;25.81
46886;BME280;32622;48.202;11.326;2022-09-09T10:38:24;1015.28;;;20.49;25.14
46886;BME280;32622;48.202;11.326;2022-09-09T10:40:33;1015.35;;;20.04;25.06
46886;BME280;32622;48.202;11.326;2022-09-09T10:42:37;1015.29;;;20.23;24.69
46886;BME280;32622;48.202;11.326;2022-09-09T10:44:50;1015.17;;;20.69;24.30
46886;BME280;32622;48.202;11.326;2022-09-09T10:47:20;1015.26;;;20.15;24.55
46886;BME280;32622;48.202;11.326;2022-09-09T10:49:46;1015.19;;;20.28;24.44
46886;BME280;32622;48.202;11.326;2022-09-09T10:52:01;1015.16;;;20.53;24.47
46886;BME280;32622;48.202;11.326;2022-09-09T10:54:18;1015.21;;;20.04;24.87
46886;BME280;32622;48.202;11.326;2022-09-09T10:56:23;1015.12;;;20.75;24.23
46886;BME280;32622;48.202;11.326;2022-09-09T10:58:30;1015.16;;;20.82;24.15
46886;BME280;32622;48.202;11.326;2022-09-09T11:00:40;1015.17;;;20.88;24.10
46886;BME280;32622;48.202;11.326;2022-09-09T11:02:44;1015.28;;;20.47;24.24
46886;BME280;32622;48.202;11.326;2022-09-09T11:04:54;1015.31;;;20.47;24.00
46886;BME280;32622;48.202;11.326;2022-09-09T11:07:02;1015.11;;;21.39;23.59
46886;BME280;32622;48.202;11.326;2022-09-09T11:09:16;1015.23;;;20.79;23.87
46886;BME280;32622;48.202;11.326;2022-09-09T11:11:25;1015.11;;;21.30;23.79
46886;BME280;32622;48.202;11.326;2022-09-09T11:13:37;1015.03;;;21.67;24.14
46886;BME280;32622;48.202;11.326;2022-09-09T11:15:45;1015.09;;;21.08;23.62
46886;BME280;32622;48.202;11.326;2022-09-09T11:17:55;1015.07;;;21.00;24.08
46886;BME280;32622;48.202;11.326;2022-09-09T11:19:59;1014.90;;;21.80;23.13
46886;BME280;32622;48.202;11.326;2022-09-09T11:22:04;1014.85;;;21.89;23.48
46886;BME280;32622;48.202;11.326;2022-09-09T11:24:15;1014.77;;;22.04;24.39
46886;BME280;32622;48.202;11.326;2022-09-09T11:26:28;1014.95;;;21.25;24.32
46886;BME280;32622;48.202;11.326;2022-09-09T11:28:42;1015.01;;;20.90;23.73
46886;BME280;32622;48.202;11.326;2022-09-09T11:31:05;1014.88;;;21.63;23.17